createdAt,value
2023-02-14T00:01:29.359Z,0.00
2023-02-14T00:04:00.773Z,0.00
2023-02-14T00:06:35.516Z,0.00
2023-02-14T00:09:05.758Z,0.00
2023-02-14T00:11:36.112Z,0.00
2023-02-14T00:14:19.194Z,0.10
2023-02-14T00:16:49.181Z,0.20
2023-02-14T00:19:21.160Z,0.20
2023-02-14T00:21:54.255Z,0.10
2023-02-14T00:24:27.282Z,0.10
2023-02-14T00:26:57.509Z,0.20
2023-02-14T00:29:28.879Z,0.10
2023-02-14T00:31:59.164Z,0.10
2023-02-14T00:34:29.837Z,0.10
2023-02-14T00:40:25.576Z,0.10
2023-02-14T00:42:55.609Z,0.10
2023-02-14T00:45:26.118Z,0.10
2023-02-14T00:47:56.111Z,0.10
2023-02-14T00:50:26.045Z,0.10
2023-02-14T00:52:58.587Z,0.10
2023-02-14T00:55:28.609Z,0.20
2023-02-14T00:57:58.526Z,0.20
2023-02-14T01:02:59.180Z,0.20
2023-02-14T01:05:29.117Z,2.60
2023-02-14T01:08:01.770Z,0.20
2023-02-14T01:10:31.752Z,0.10
2023-02-14T01:13:02.071Z,0.20
2023-02-14T01:18:03.414Z,0.10
2023-02-14T01:20:34.366Z,0.10
2023-02-14T01:28:36.421Z,0.20
2023-02-14T01:31:12.241Z,0.10
2023-02-14T01:33:43.662Z,0.10
2023-02-14T01:36:28.180Z,0.00
2023-02-14T01:39:04.589Z,0.00
2023-02-14T01:41:37.058Z,0.00
2023-02-14T01:44:09.717Z,0.00
2023-02-14T01:46:41.041Z,-0.10
2023-02-14T01:49:14.818Z,0.00
2023-02-14T01:51:50.880Z,0.00
2023-02-14T01:54:28.567Z,-0.10
2023-02-14T01:57:05.358Z,0.00
2023-02-14T01:59:39.762Z,-0.10
2023-02-14T02:02:10.142Z,-0.10
2023-02-14T02:04:45.958Z,-0.10
2023-02-14T02:07:21.875Z,-0.10
2023-02-14T02:09:58.103Z,-0.20
2023-02-14T02:12:30.714Z,-0.20
2023-02-14T02:15:02.669Z,-0.10
2023-02-14T02:17:43.305Z,2.40
2023-02-14T02:20:38.002Z,-0.20
2023-02-14T02:23:34.554Z,-0.30
2023-02-14T02:26:41.310Z,-0.10
2023-02-14T02:29:52.300Z,-0.40
2023-02-14T02:32:54.286Z,0.60
2023-02-14T02:35:43.283Z,-0.30
2023-02-14T02:38:26.356Z,-0.20
2023-02-14T02:41:05.749Z,-0.20
2023-02-14T02:43:46.084Z,-0.20
2023-02-14T02:46:36.355Z,-0.20
2023-02-14T02:49:35.966Z,-0.20
2023-02-14T02:52:26.534Z,-0.20
2023-02-14T02:55:01.708Z,-0.10
2023-02-14T02:57:35.858Z,-0.20
2023-02-14T03:00:08.778Z,-0.10
2023-02-14T03:02:55.826Z,-0.30
2023-02-14T03:05:26.369Z,-0.10
2023-02-14T03:07:58.911Z,-0.20
2023-02-14T03:10:32.870Z,-0.20
2023-02-14T03:13:42.123Z,0.00
2023-02-14T03:16:37.144Z,-0.20
2023-02-14T03:19:57.110Z,-0.10
2023-02-14T03:22:43.749Z,-0.10
2023-02-14T03:25:27.340Z,-0.10
2023-02-14T03:28:02.332Z,-0.10
2023-02-14T03:30:42.035Z,-0.10
2023-02-14T03:33:21.243Z,-0.20
2023-02-14T03:36:01.999Z,-0.10
2023-02-14T03:38:39.679Z,-0.10
2023-02-14T03:41:17.755Z,-0.10
2023-02-14T03:43:52.202Z,-0.20
2023-02-14T03:46:23.696Z,-0.20
2023-02-14T03:48:56.194Z,-0.20
2023-02-14T03:51:27.379Z,-0.20
2023-02-14T03:54:00.581Z,-0.20
2023-02-14T03:56:38.892Z,-0.20
2023-02-14T03:59:12.979Z,-0.20
2023-02-14T04:01:50.081Z,0.70
2023-02-14T04:04:23.874Z,-0.20
2023-02-14T04:11:59.942Z,-0.30
2023-02-14T04:19:43.169Z,-0.30
2023-02-14T04:27:16.271Z,-0.30
2023-02-14T04:29:47.955Z,-0.30
2023-02-14T04:32:20.696Z,-0.30
2023-02-14T04:37:22.715Z,-0.40
2023-02-14T04:42:25.429Z,-0.40
2023-02-14T04:52:26.097Z,-0.80
2023-02-14T04:57:28.747Z,-0.40
2023-02-14T05:12:32.448Z,-0.60
2023-02-14T05:15:02.342Z,-0.60
2023-02-14T05:27:35.867Z,-0.50
2023-02-14T05:57:46.238Z,-0.60
2023-02-14T06:00:17.641Z,-0.60
2023-02-14T06:10:21.292Z,-0.10
2023-02-14T06:12:54.920Z,-0.60
2023-02-14T06:15:25.009Z,-0.70
2023-02-14T06:20:27.672Z,-0.70
2023-02-14T06:28:04.014Z,-0.70
2023-02-14T06:43:08.253Z,-0.70
2023-02-14T06:48:08.917Z,-0.70
2023-02-14T06:58:12.170Z,-0.80
2023-02-14T07:08:16.119Z,-0.80
2023-02-14T07:13:18.832Z,-0.90
2023-02-14T07:15:50.440Z,-0.90
2023-02-14T07:28:24.229Z,-0.80
2023-02-14T07:40:56.691Z,-0.80
2023-02-14T07:43:29.654Z,-0.80
2023-02-14T07:51:03.953Z,-0.70
2023-02-14T07:53:34.135Z,-0.70
2023-02-14T07:58:36.951Z,-0.80
2023-02-14T08:11:08.549Z,-0.70
2023-02-14T08:13:41.237Z,-0.70
2023-02-14T08:16:12.647Z,-0.80
2023-02-14T08:18:45.420Z,-0.80
2023-02-14T08:21:17.233Z,-0.70
2023-02-14T08:23:47.670Z,-0.70
2023-02-14T08:26:17.674Z,-0.60
2023-02-14T08:28:50.201Z,-0.60
2023-02-14T08:31:34.793Z,-0.60
2023-02-14T08:34:06.077Z,-0.60
2023-02-14T08:36:36.158Z,-0.70
2023-02-14T08:39:07.022Z,-0.60
2023-02-14T08:41:37.259Z,-0.60
2023-02-14T08:44:09.725Z,-0.60
2023-02-14T08:46:39.674Z,-0.50
2023-02-14T08:49:09.694Z,-0.50
2023-02-14T08:51:39.702Z,-0.50
2023-02-14T08:54:09.776Z,-0.50
2023-02-14T08:56:40.671Z,-0.50
2023-02-14T08:59:13.160Z,-0.50
2023-02-14T09:01:43.088Z,-0.50
2023-02-14T09:04:13.221Z,-0.40
2023-02-14T09:06:43.355Z,-0.30
2023-02-14T09:09:13.435Z,-0.30
2023-02-14T09:11:43.586Z,-0.30
2023-02-14T09:14:16.180Z,-0.30
2023-02-14T09:16:46.264Z,-0.20
2023-02-14T09:19:16.273Z,-0.20
2023-02-14T09:21:46.542Z,-0.20
2023-02-14T09:24:16.484Z,-0.20
2023-02-14T09:26:46.365Z,-0.20
2023-02-14T09:29:18.872Z,-0.20
2023-02-14T09:31:48.847Z,-0.20
2023-02-14T09:34:18.878Z,-0.10
2023-02-14T09:37:01.245Z,-0.10
2023-02-14T09:39:31.269Z,-0.10
2023-02-14T09:42:21.198Z,0.00
2023-02-14T09:44:57.485Z,-0.60
2023-02-14T09:47:43.176Z,0.00
2023-02-14T09:50:20.606Z,0.00
2023-02-14T09:52:54.244Z,0.00
2023-02-14T09:55:24.455Z,0.00
2023-02-14T09:58:08.544Z,0.00
2023-02-14T10:00:48.433Z,0.00
2023-02-14T10:03:43.519Z,0.00
2023-02-14T10:06:26.994Z,0.10
2023-02-14T10:09:05.173Z,0.10
2023-02-14T10:11:35.509Z,0.20
2023-02-14T10:14:13.802Z,-2.20
2023-02-14T10:16:49.992Z,0.30
2023-02-14T10:19:24.696Z,0.40
2023-02-14T10:21:58.124Z,0.40
2023-02-14T10:24:32.733Z,0.40
2023-02-14T10:27:11.331Z,0.50
2023-02-14T10:29:42.017Z,0.60
2023-02-14T10:32:18.045Z,0.60
2023-02-14T10:34:50.855Z,0.70
2023-02-14T10:37:30.488Z,0.60
2023-02-14T10:40:17.382Z,0.70
2023-02-14T10:42:58.762Z,0.80
2023-02-14T10:45:37.184Z,0.80
2023-02-14T10:48:18.952Z,0.70
2023-02-14T10:50:59.634Z,0.70
2023-02-14T10:53:41.366Z,0.70
2023-02-14T10:56:20.007Z,0.70
2023-02-14T10:58:53.885Z,0.70
2023-02-14T11:01:24.401Z,0.80
2023-02-14T11:04:04.217Z,0.80
2023-02-14T11:06:34.596Z,-1.60
2023-02-14T11:09:04.511Z,0.90
2023-02-14T11:11:40.377Z,1.00
2023-02-14T11:14:26.759Z,1.10
2023-02-14T11:16:57.785Z,1.10
2023-02-14T11:19:34.110Z,1.10
2023-02-14T11:22:05.387Z,1.10
2023-02-14T11:24:38.268Z,1.10
2023-02-14T11:27:18.520Z,1.20
2023-02-14T11:29:53.122Z,1.20
2023-02-14T11:32:25.374Z,1.20
2023-02-14T11:35:02.822Z,1.60
2023-02-14T11:37:35.326Z,1.40
2023-02-14T11:40:06.183Z,1.50
2023-02-14T11:42:41.445Z,1.50
2023-02-14T11:45:30.618Z,1.60
2023-02-14T11:48:19.980Z,1.60
2023-02-14T11:51:04.969Z,1.60
2023-02-14T11:53:46.346Z,1.70
2023-02-14T11:56:17.644Z,1.80
2023-02-14T11:58:53.506Z,1.80
2023-02-14T12:01:27.501Z,1.80
2023-02-14T12:04:01.050Z,1.90
2023-02-14T12:06:36.636Z,2.00
2023-02-14T12:09:26.873Z,2.00
2023-02-14T12:12:00.710Z,2.00
2023-02-14T12:14:32.837Z,2.00
2023-02-14T12:17:10.065Z,2.10
2023-02-14T12:19:47.446Z,2.20
2023-02-14T12:22:23.164Z,2.30
2023-02-14T12:24:59.968Z,2.30
2023-02-14T12:27:35.370Z,2.30
2023-02-14T12:30:08.876Z,2.30
2023-02-14T12:32:38.939Z,2.30
2023-02-14T12:35:17.908Z,2.30
2023-02-14T12:38:04.676Z,2.40
2023-02-14T12:40:48.059Z,2.40
2023-02-14T12:43:53.859Z,2.30
2023-02-14T12:46:45.476Z,2.50
2023-02-14T12:49:29.042Z,2.50
2023-02-14T12:52:09.162Z,2.60
2023-02-14T12:54:57.261Z,3.00
2023-02-14T12:57:40.222Z,2.70
2023-02-14T13:00:23.243Z,3.00
2023-02-14T13:03:13.451Z,3.50
2023-02-14T13:06:01.879Z,3.80
2023-02-14T13:08:49.588Z,4.20
2023-02-14T13:11:35.341Z,4.60
2023-02-14T13:14:17.300Z,5.00
2023-02-14T13:16:53.260Z,5.20
2023-02-14T13:19:36.949Z,5.20
2023-02-14T13:22:09.536Z,5.30
2023-02-14T13:24:44.311Z,4.70
2023-02-14T13:27:23.062Z,4.90
2023-02-14T13:29:55.785Z,5.00
2023-02-14T13:32:31.609Z,5.20
2023-02-14T13:35:02.345Z,5.10
2023-02-14T13:37:33.478Z,5.10
2023-02-14T13:40:06.896Z,5.40
2023-02-14T13:42:58.190Z,5.40
2023-02-14T13:45:56.423Z,5.60
2023-02-14T13:48:28.584Z,5.60
2023-02-14T13:51:01.023Z,5.70
2023-02-14T13:53:43.419Z,5.80
2023-02-14T13:56:43.162Z,5.80
2023-02-14T13:59:29.145Z,5.90
2023-02-14T14:02:19.378Z,5.80
2023-02-14T14:04:49.288Z,5.70
2023-02-14T14:07:22.192Z,5.80
2023-02-14T14:10:03.284Z,5.90
2023-02-14T14:12:46.829Z,5.80
2023-02-14T14:15:23.581Z,5.80
2023-02-14T14:18:26.060Z,5.80
2023-02-14T14:20:56.354Z,5.90
2023-02-14T14:23:38.602Z,5.90
2023-02-14T14:26:39.738Z,6.00
2023-02-14T14:29:15.159Z,5.90
2023-02-14T14:31:51.331Z,6.00
2023-02-14T14:34:25.250Z,6.00
2023-02-14T14:37:05.475Z,5.90
2023-02-14T14:39:39.985Z,5.90
2023-02-14T14:42:12.566Z,5.80
2023-02-14T14:44:49.857Z,5.90
2023-02-14T14:47:25.858Z,5.70
2023-02-14T14:49:57.277Z,5.60
2023-02-14T14:52:37.937Z,5.50
2023-02-14T14:55:10.672Z,5.50
2023-02-14T14:57:41.538Z,5.40
2023-02-14T15:00:22.756Z,5.30
2023-02-14T15:03:07.839Z,5.30
2023-02-14T15:05:40.718Z,5.20
2023-02-14T15:08:18.557Z,5.10
2023-02-14T15:10:53.838Z,4.90
2023-02-14T15:13:41.616Z,5.30
2023-02-14T15:18:45.243Z,4.90
2023-02-14T15:21:16.765Z,4.70
2023-02-14T15:23:48.118Z,4.40
2023-02-14T15:26:28.704Z,4.50
2023-02-14T15:29:00.530Z,4.70
2023-02-14T15:31:37.300Z,4.60
2023-02-14T15:34:10.703Z,4.50
2023-02-14T15:39:13.618Z,3.90
2023-02-14T15:41:47.439Z,4.00
2023-02-14T15:44:27.964Z,4.10
2023-02-14T15:46:59.961Z,3.30
2023-02-14T15:49:36.109Z,3.80
2023-02-14T15:52:08.376Z,3.30
2023-02-14T15:54:41.964Z,3.60
2023-02-14T15:57:26.310Z,3.50
2023-02-14T15:59:56.854Z,3.40
2023-02-14T16:02:36.023Z,3.30
2023-02-14T16:05:18.046Z,3.20
2023-02-14T16:08:03.667Z,3.20
2023-02-14T16:10:35.637Z,3.10
2023-02-14T16:13:09.344Z,2.90
2023-02-14T16:15:42.567Z,3.00
2023-02-14T16:18:21.413Z,2.60
2023-02-14T16:20:53.902Z,2.50
2023-02-14T16:23:26.873Z,2.70
2023-02-14T16:25:58.092Z,3.40
2023-02-14T16:28:32.070Z,2.30
2023-02-14T16:31:05.948Z,2.40
2023-02-14T16:33:38.246Z,2.30
2023-02-14T16:36:18.516Z,2.10
2023-02-14T16:38:50.063Z,2.00
2023-02-14T16:41:22.209Z,1.80
2023-02-14T16:43:53.254Z,1.90
2023-02-14T16:46:25.632Z,1.70
2023-02-14T16:48:55.717Z,1.50
2023-02-14T16:51:30.955Z,1.20
2023-02-14T16:54:02.635Z,1.40
2023-02-14T16:56:39.376Z,1.20
2023-02-14T16:59:09.286Z,1.00
2023-02-14T17:01:39.492Z,1.30
2023-02-14T17:04:10.186Z,1.00
2023-02-14T17:06:48.223Z,0.90
2023-02-14T17:09:22.955Z,1.10
2023-02-14T17:11:55.468Z,0.80
2023-02-14T17:14:30.887Z,1.10
2023-02-14T17:17:01.628Z,0.70
2023-02-14T17:19:31.763Z,0.50
2023-02-14T17:22:04.555Z,0.60
2023-02-14T17:24:34.806Z,0.50
2023-02-14T17:27:04.886Z,0.40
2023-02-14T17:29:34.784Z,0.90
2023-02-14T17:32:04.904Z,1.10
2023-02-14T17:34:35.203Z,0.40
2023-02-14T17:37:08.004Z,0.10
2023-02-14T17:39:38.184Z,0.20
2023-02-14T17:42:11.688Z,0.10
2023-02-14T17:44:41.969Z,1.30
2023-02-14T17:47:11.934Z,0.40
2023-02-14T17:49:41.888Z,0.40
2023-02-14T17:52:14.412Z,0.60
2023-02-14T17:54:44.933Z,0.50
2023-02-14T17:57:15.467Z,0.50
2023-02-14T17:59:46.829Z,0.60
2023-02-14T18:02:16.828Z,0.80
2023-02-14T18:04:48.357Z,1.60
2023-02-14T18:07:20.933Z,0.90
2023-02-14T18:09:50.943Z,1.00
2023-02-14T18:12:20.914Z,1.00
2023-02-14T18:14:53.306Z,1.40
2023-02-14T18:17:23.224Z,1.10
2023-02-14T18:19:53.108Z,1.10
2023-02-14T18:22:25.598Z,1.10
2023-02-14T18:24:58.663Z,1.30
2023-02-14T18:27:28.876Z,1.30
2023-02-14T18:29:59.265Z,1.30
2023-02-14T18:32:29.232Z,1.30
2023-02-14T18:34:59.139Z,1.40
2023-02-14T18:37:31.712Z,1.50
2023-02-14T18:40:01.793Z,1.50
2023-02-14T18:42:31.752Z,1.30
2023-02-14T18:45:01.673Z,1.30
2023-02-14T18:47:31.864Z,1.20
2023-02-14T18:50:01.849Z,1.20
2023-02-14T18:52:34.456Z,1.20
2023-02-14T18:55:04.679Z,1.10
2023-02-14T18:57:36.601Z,1.20
2023-02-14T19:00:12.012Z,1.10
2023-02-14T19:02:42.246Z,1.10
2023-02-14T19:05:12.926Z,1.10
2023-02-14T19:07:46.229Z,1.10
2023-02-14T19:10:16.378Z,1.00
2023-02-14T19:12:46.840Z,0.90
2023-02-14T19:15:17.564Z,1.00
2023-02-14T19:17:47.672Z,0.60
2023-02-14T19:20:18.441Z,0.90
2023-02-14T19:22:51.071Z,0.80
2023-02-14T19:25:21.273Z,0.80
2023-02-14T19:27:51.741Z,0.80
2023-02-14T19:30:22.102Z,0.80
2023-02-14T19:32:52.031Z,0.80
2023-02-14T19:35:21.956Z,0.80
2023-02-14T19:37:56.718Z,0.80
2023-02-14T19:40:26.689Z,0.80
2023-02-14T19:42:56.610Z,0.70
2023-02-14T19:45:27.416Z,0.70
2023-02-14T19:47:59.300Z,0.70
2023-02-14T19:50:30.841Z,0.60
2023-02-14T19:53:04.852Z,0.60
2023-02-14T19:55:34.904Z,0.50
2023-02-14T19:58:04.894Z,0.50
2023-02-14T20:00:37.075Z,0.40
2023-02-14T20:03:07.291Z,0.30
2023-02-14T20:05:40.494Z,0.30
2023-02-14T20:08:13.088Z,0.30
2023-02-14T20:10:43.233Z,0.30
2023-02-14T20:13:13.473Z,0.20
2023-02-14T20:15:45.273Z,0.20
2023-02-14T20:18:15.212Z,0.20
2023-02-14T20:21:02.046Z,0.20
2023-02-14T21:01:25.606Z,-0.70
2023-02-14T21:03:56.481Z,-0.70
2023-02-14T21:06:29.008Z,-0.70
2023-02-14T21:24:11.081Z,-0.80
2023-02-14T21:44:41.162Z,-0.80
2023-02-14T23:21:14.705Z,-0.80
2023-02-14T23:44:10.136Z,-1.30
